Time;durP1;ratioP1;P1;durP2;ratioP2;P2;SDS_P1;SDS_P2;PMS_P1;PMS_P2;Temp;Humidity;BMP_temperature;BMP_pressure;BME280_temperature;BME280_humidity;BME280_pressure;Samples;Min_cycle;Max_cycle;Signal;HPM_P1;HPM_P2
2023/07/09 00:04:11;;;;;;;6.95;6.25;;;;;;;;;;10023180;28;20041;-55
2023/07/09 00:09:04;;;;;;;6.55;5.82;;;;;;;;;;10025648;28;20448;-54
2023/07/09 00:13:56;;;;;;;6.10;5.50;;;;;;;;;;10028374;28;20112;-55
2023/07/09 00:18:49;;;;;;;14.65;5.60;;;;;;;;;;10026239;28;20042;-56
2023/07/09 00:23:41;;;;;;;6.82;5.65;;;;;;;;;;10026267;28;20050;-53
2023/07/09 00:28:33;;;;;;;6.72;5.78;;;;;;;;;;10027959;28;20076;-55
2023/07/09 00:33:31;;;;;;;8.07;6.43;;;;;;;;;;10022167;28;20463;-54
2023/07/09 00:38:24;;;;;;;5.43;4.93;;;;;;;;;;10019209;28;20042;-55
2023/07/09 00:43:16;;;;;;;6.22;5.63;;;;;;;;;;10024765;28;20046;-55
2023/07/09 00:48:13;;;;;;;6.60;5.65;;;;;;;;;;10025264;28;20463;-55
2023/07/09 00:53:23;;;;;;;6.75;6.05;;;;;;;;;;10024338;28;20049;-55
2023/07/09 00:58:15;;;;;;;8.98;6.03;;;;;;;;;;10044421;28;20052;-56
2023/07/09 01:03:10;;;;;;;6.45;5.85;;;;;;;;;;10023741;28;20081;-55
2023/07/09 01:08:03;;;;;;;8.15;6.47;;;;;;;;;;10024863;28;20038;-55
2023/07/09 01:12:54;;;;;;;6.35;5.75;;;;;;;;;;10023513;28;20049;-54
2023/07/09 01:17:53;;;;;;;6.32;5.68;;;;;;;;;;10033174;28;20044;-53
2023/07/09 01:22:48;;;;;;;6.75;5.68;;;;;;;;;;10031481;28;20042;-55
2023/07/09 01:27:43;;;;;;;6.47;5.82;;;;;;;;;;10034643;28;20069;-54
2023/07/09 01:32:37;;;;;;;5.63;4.65;;;;;;;;;;10031820;28;20049;-55
2023/07/09 01:37:30;;;;;;;6.88;5.40;;;;;;;;;;10031145;28;20046;-55
2023/07/09 01:42:24;;;;;;;5.57;4.97;;;;;;;;;;10034800;28;20163;-54
2023/07/09 01:47:17;;;;;;;4.78;4.28;;;;;;;;;;10031381;28;20046;-55
2023/07/09 01:52:09;;;;;;;6.10;5.25;;;;;;;;;;10029741;28;20077;-55
2023/07/09 01:57:19;;;;;;;5.90;4.80;;;;;;;;;;10030665;28;20125;-55
2023/07/09 02:02:18;;;;;;;5.25;4.68;;;;;;;;;;10030807;28;20037;-53
2023/07/09 02:07:10;;;;;;;4.95;4.50;;;;;;;;;;10032949;28;20041;-55
2023/07/09 02:12:03;;;;;;;5.07;4.32;;;;;;;;;;10030778;28;20062;-55
2023/07/09 02:16:54;;;;;;;4.72;4.25;;;;;;;;;;10030504;28;20124;-53
2023/07/09 02:21:48;;;;;;;5.80;5.15;;;;;;;;;;10030112;28;20349;-55
2023/07/09 02:26:40;;;;;;;4.85;4.35;;;;;;;;;;10028170;28;20441;-55
2023/07/09 02:31:33;;;;;;;5.25;4.75;;;;;;;;;;10030180;28;20050;-55
2023/07/09 02:36:26;;;;;;;5.45;4.93;;;;;;;;;;10029384;28;20041;-55
2023/07/09 02:41:17;;;;;;;5.47;4.97;;;;;;;;;;10030600;28;20386;-55
2023/07/09 02:46:10;;;;;;;5.53;4.47;;;;;;;;;;10030754;28;20080;-55
2023/07/09 02:51:01;;;;;;;6.95;5.15;;;;;;;;;;10029217;28;20046;-55
2023/07/09 02:55:54;;;;;;;5.65;4.80;;;;;;;;;;10031212;28;20118;-55
2023/07/09 03:00:51;;;;;;;5.22;4.72;;;;;;;;;;10029347;28;20065;-55
2023/07/09 03:05:45;;;;;;;5.78;5.00;;;;;;;;;;10028108;28;20092;-55
2023/07/09 03:10:37;;;;;;;5.18;4.68;;;;;;;;;;10043480;28;21078;-51
2023/07/09 03:15:31;;;;;;;4.60;4.05;;;;;;;;;;10028797;28;20349;-54
2023/07/09 03:20:23;;;;;;;5.90;5.05;;;;;;;;;;10021680;28;20046;-54
2023/07/09 03:25:14;;;;;;;5.63;4.88;;;;;;;;;;10044522;28;20073;-55
2023/07/09 03:30:07;;;;;;;5.30;4.80;;;;;;;;;;10056737;28;20433;-53
2023/07/09 03:34:59;;;;;;;5.32;4.82;;;;;;;;;;10065004;28;20060;-56
2023/07/09 03:39:51;;;;;;;4.45;4.05;;;;;;;;;;10081395;28;20482;-55
2023/07/09 03:44:43;;;;;;;4.78;4.25;;;;;;;;;;10065331;28;20037;-54
2023/07/09 03:49:35;;;;;;;8.00;4.72;;;;;;;;;;10063426;28;20041;-55
2023/07/09 03:54:27;;;;;;;5.72;4.95;;;;;;;;;;10067392;28;20045;-54
2023/07/09 03:59:19;;;;;;;5.03;4.32;;;;;;;;;;10051858;28;20076;-52
2023/07/09 04:04:11;;;;;;;5.57;5.07;;;;;;;;;;10046679;28;20046;-54
2023/07/09 04:09:03;;;;;;;6.25;4.53;;;;;;;;;;10064276;28;20045;-56
2023/07/09 04:13:55;;;;;;;6.50;4.72;;;;;;;;;;10065109;28;20091;-56
2023/07/09 04:18:47;;;;;;;4.85;4.35;;;;;;;;;;10073851;28;20124;-56
2023/07/09 04:23:38;;;;;;;4.93;4.53;;;;;;;;;;10062407;28;20049;-53
2023/07/09 04:28:31;;;;;;;7.13;4.85;;;;;;;;;;10071386;28;20414;-56
2023/07/09 04:33:23;;;;;;;4.82;4.32;;;;;;;;;;10050537;28;20053;-55
2023/07/09 04:38:15;;;;;;;4.57;4.13;;;;;;;;;;10065601;28;20099;-56
2023/07/09 04:43:08;;;;;;;5.18;4.40;;;;;;;;;;10049805;28;20468;-56
2023/07/09 04:47:59;;;;;;;4.55;4.00;;;;;;;;;;10043113;28;20499;-56
2023/07/09 04:52:52;;;;;;;5.10;4.60;;;;;;;;;;10058771;28;20072;-56
2023/07/09 04:57:44;;;;;;;4.95;4.40;;;;;;;;;;10054324;28;20084;-56
2023/07/09 05:02:36;;;;;;;4.82;4.43;;;;;;;;;;10053401;28;20107;-55
2023/07/09 05:07:28;;;;;;;4.70;4.25;;;;;;;;;;10048304;28;20042;-56
2023/07/09 05:12:20;;;;;;;4.95;4.30;;;;;;;;;;10024365;28;20054;-55
2023/07/09 05:17:12;;;;;;;5.20;4.70;;;;;;;;;;10025057;28;20101;-55
2023/07/09 05:22:04;;;;;;;6.47;4.32;;;;;;;;;;10024151;28;20052;-56
2023/07/09 05:26:56;;;;;;;5.32;4.15;;;;;;;;;;10026122;28;20092;-56
2023/07/09 05:31:48;;;;;;;4.60;4.07;;;;;;;;;;10023777;28;20054;-56
2023/07/09 05:36:40;;;;;;;4.20;3.80;;;;;;;;;;10023898;28;20042;-55
2023/07/09 05:41:32;;;;;;;5.47;4.68;;;;;;;;;;10023993;28;20124;-56
2023/07/09 05:46:24;;;;;;;4.78;4.28;;;;;;;;;;10024143;28;20062;-55
2023/07/09 05:51:16;;;;;;;4.45;4.05;;;;;;;;;;10031870;28;20041;-55
2023/07/09 05:56:08;;;;;;;5.20;4.70;;;;;;;;;;10064270;28;20100;-56
2023/07/09 06:01:00;;;;;;;4.90;4.22;;;;;;;;;;10032769;28;20483;-55
2023/07/09 06:05:52;;;;;;;4.72;4.10;;;;;;;;;;10049577;28;20137;-55
2023/07/09 06:11:10;;;;;;;5.55;4.80;;;;;;;;;;10031631;28;20046;-56
2023/07/09 06:16:02;;;;;;;4.30;3.80;;;;;;;;;;10033146;28;20089;-56
2023/07/09 06:20:57;;;;;;;4.75;4.10;;;;;;;;;;10032346;28;20057;-56
2023/07/09 06:25:50;;;;;;;4.45;3.95;;;;;;;;;;10029494;28;20044;-56
2023/07/09 06:30:42;;;;;;;3.92;3.55;;;;;;;;;;10029559;28;20079;-55
2023/07/09 06:35:34;;;;;;;4.25;3.85;;;;;;;;;;10028568;28;20046;-56
2023/07/09 06:40:26;;;;;;;7.70;3.70;;;;;;;;;;10029598;28;20054;-56
2023/07/09 06:45:18;;;;;;;4.65;4.20;;;;;;;;;;10030453;28;20080;-54
2023/07/09 06:50:10;;;;;;;6.63;4.40;;;;;;;;;;10028908;28;20053;-56
2023/07/09 06:55:01;;;;;;;5.22;4.75;;;;;;;;;;10028062;28;20053;-56
2023/07/09 06:59:54;;;;;;;4.28;3.83;;;;;;;;;;10029601;28;20129;-56
2023/07/09 07:04:46;;;;;;;4.35;3.90;;;;;;;;;;10035188;28;20122;-56
2023/07/09 07:09:37;;;;;;;5.35;4.20;;;;;;;;;;10028582;28;20438;-56
2023/07/09 07:14:31;;;;;;;4.18;3.75;;;;;;;;;;10027749;28;20093;-56
2023/07/09 07:19:23;;;;;;;5.38;4.70;;;;;;;;;;10029165;28;20056;-54
2023/07/09 07:24:14;;;;;;;4.43;4.03;;;;;;;;;;10028550;28;20104;-56
2023/07/09 07:29:06;;;;;;;4.45;3.92;;;;;;;;;;10034631;28;20038;-56
2023/07/09 07:33:58;;;;;;;5.03;4.30;;;;;;;;;;10056087;28;20471;-56
2023/07/09 07:38:50;;;;;;;4.40;4.00;;;;;;;;;;10040429;28;20467;-56
2023/07/09 07:43:42;;;;;;;4.35;3.80;;;;;;;;;;10050199;28;20420;-55
2023/07/09 07:48:34;;;;;;;4.35;3.80;;;;;;;;;;10033038;28;20108;-55
2023/07/09 07:53:29;;;;;;;3.90;3.60;;;;;;;;;;10029928;28;20049;-56
2023/07/09 07:58:21;;;;;;;4.55;4.15;;;;;;;;;;10048631;28;20042;-56
2023/07/09 08:03:13;;;;;;;5.10;4.30;;;;;;;;;;10040785;28;20047;-56
2023/07/09 08:08:05;;;;;;;4.35;3.85;;;;;;;;;;10027717;28;20582;-56
2023/07/09 08:12:57;;;;;;;5.22;3.88;;;;;;;;;;10033701;28;20041;-54
2023/07/09 08:17:49;;;;;;;4.82;4.25;;;;;;;;;;10051731;28;20099;-58
2023/07/09 08:22:41;;;;;;;6.63;5.20;;;;;;;;;;10065291;28;20153;-61
2023/07/09 08:27:32;;;;;;;5.07;4.57;;;;;;;;;;10034411;28;20048;-59
2023/07/09 08:32:24;;;;;;;5.35;4.57;;;;;;;;;;10025373;28;20046;-53
2023/07/09 08:37:16;;;;;;;5.93;5.30;;;;;;;;;;10048946;28;20129;-51
2023/07/09 08:42:14;;;;;;;6.32;5.32;;;;;;;;;;10049341;28;20049;-52
2023/07/09 08:47:24;;;;;;;7.75;7.03;;;;;;;;;;10060031;28;20094;-55
2023/07/09 08:52:30;;;;;;;11.07;7.15;;;;;;;;;;10054347;28;20084;-55
2023/07/09 08:57:26;;;;;;;13.13;8.50;;;;;;;;;;10052958;28;20414;-53
2023/07/09 09:02:33;;;;;;;13.25;8.23;;;;;;;;;;10044180;28;20075;-64
2023/07/09 09:07:34;;;;;;;11.38;7.32;;;;;;;;;;10064932;28;20050;-62
2023/07/09 09:12:29;;;;;;;9.35;6.47;;;;;;;;;;10055618;28;20045;-70
2023/07/09 09:17:21;;;;;;;14.32;9.80;;;;;;;;;;10054730;28;20491;-69
2023/07/09 09:22:15;;;;;;;9.75;8.05;;;;;;;;;;10028937;28;20097;-63
2023/07/09 09:27:08;;;;;;;7.13;6.40;;;;;;;;;;10023175;28;20496;-64
2023/07/09 09:32:18;;;;;;;13.02;8.40;;;;;;;;;;10034934;28;20053;-61
2023/07/09 09:37:14;;;;;;;10.27;6.88;;;;;;;;;;10055033;28;20141;-56
2023/07/09 09:42:11;;;;;;;8.77;7.88;;;;;;;;;;10044163;28;20052;-57
2023/07/09 09:47:03;;;;;;;8.52;7.18;;;;;;;;;;10058789;28;20111;-57
2023/07/09 09:51:58;;;;;;;12.95;7.05;;;;;;;;;;10029117;28;20050;-59
2023/07/09 09:56:50;;;;;;;10.45;7.10;;;;;;;;;;10043517;28;20057;-60
2023/07/09 10:01:42;;;;;;;15.93;7.93;;;;;;;;;;10040568;28;20104;-59
2023/07/09 10:06:39;;;;;;;10.32;6.63;;;;;;;;;;10038741;28;20415;-59
2023/07/09 10:11:34;;;;;;;12.27;7.45;;;;;;;;;;10053016;28;20128;-59
2023/07/09 10:16:36;;;;;;;9.18;6.88;;;;;;;;;;10031189;28;20497;-59
2023/07/09 10:21:52;;;;;;;11.65;7.03;;;;;;;;;;10038828;28;20046;-60
2023/07/09 10:26:47;;;;;;;10.43;7.00;;;;;;;;;;10072914;28;20041;-60
2023/07/09 10:31:50;;;;;;;8.25;6.75;;;;;;;;;;10038266;28;20559;-58
2023/07/09 10:37:20;;;;;;;16.17;7.05;;;;;;;;;;10044838;28;20137;-60
2023/07/09 10:42:30;;;;;;;10.52;7.45;;;;;;;;;;10037140;28;20530;-60
2023/07/09 10:47:33;;;;;;;14.02;8.73;;;;;;;;;;10029638;28;20587;-60
2023/07/09 10:52:28;;;;;;;18.83;7.05;;;;;;;;;;10052133;28;20136;-60
2023/07/09 10:57:28;;;;;;;12.70;6.93;;;;;;;;;;10052533;28;20077;-60
2023/07/09 11:02:26;;;;;;;9.70;6.72;;;;;;;;;;10066419;28;20537;-60
2023/07/09 11:07:26;;;;;;;9.63;6.22;;;;;;;;;;10040982;28;20055;-60
2023/07/09 11:12:28;;;;;;;10.63;7.20;;;;;;;;;;10068537;28;20120;-60
2023/07/09 11:17:21;;;;;;;9.80;6.40;;;;;;;;;;10081413;28;20137;-60
2023/07/09 11:22:21;;;;;;;13.43;6.20;;;;;;;;;;10083463;28;20049;-60
2023/07/09 11:27:31;;;;;;;9.45;7.00;;;;;;;;;;10081126;28;20060;-59
2023/07/09 11:32:23;;;;;;;8.00;6.55;;;;;;;;;;10080663;28;20048;-59
2023/07/09 11:37:16;;;;;;;8.30;6.60;;;;;;;;;;10087299;28;20033;-59
2023/07/09 11:42:26;;;;;;;7.97;5.70;;;;;;;;;;10069325;28;20042;-60
2023/07/09 11:47:21;;;;;;;6.88;5.90;;;;;;;;;;10080245;28;20383;-60
2023/07/09 11:52:14;;;;;;;12.90;7.45;;;;;;;;;;10077614;28;20048;-59
2023/07/09 11:57:11;;;;;;;7.80;6.90;;;;;;;;;;10078292;28;20641;-59
2023/07/09 12:02:03;;;;;;;7.22;5.93;;;;;;;;;;10079392;28;20156;-60
2023/07/09 12:06:58;;;;;;;7.07;5.97;;;;;;;;;;10080128;28;20041;-60
2023/07/09 12:11:50;;;;;;;10.38;7.55;;;;;;;;;;10094888;28;20037;-59
2023/07/09 12:16:53;;;;;;;8.93;6.15;;;;;;;;;;10082303;28;20041;-60
2023/07/09 12:21:47;;;;;;;7.90;6.45;;;;;;;;;;10067452;28;20120;-59
2023/07/09 12:26:41;;;;;;;8.13;5.57;;;;;;;;;;10067862;28;20037;-59
2023/07/09 12:31:33;;;;;;;8.98;5.45;;;;;;;;;;10078887;28;20444;-60
2023/07/09 12:36:26;;;;;;;6.15;5.53;;;;;;;;;;10082291;28;20044;-60
2023/07/09 12:41:28;;;;;;;6.93;5.38;;;;;;;;;;10082665;28;20045;-59
2023/07/09 12:46:21;;;;;;;5.80;5.30;;;;;;;;;;10080758;28;20191;-59
2023/07/09 12:51:16;;;;;;;7.78;5.60;;;;;;;;;;10072180;28;20455;-60
2023/07/09 12:56:13;;;;;;;6.65;6.05;;;;;;;;;;10078029;28;20041;-60
2023/07/09 13:01:11;;;;;;;7.97;5.27;;;;;;;;;;10079058;28;20073;-60
2023/07/09 13:06:06;;;;;;;5.15;4.65;;;;;;;;;;10081588;28;20047;-59
2023/07/09 13:11:00;;;;;;;5.80;5.25;;;;;;;;;;10078403;28;20124;-60
2023/07/09 13:15:58;;;;;;;6.00;4.93;;;;;;;;;;10083862;28;20564;-60
2023/07/09 13:20:52;;;;;;;8.40;6.25;;;;;;;;;;10082415;28;20129;-59
2023/07/09 13:25:44;;;;;;;7.95;6.18;;;;;;;;;;10080451;28;20045;-60
2023/07/09 13:30:39;;;;;;;6.05;4.70;;;;;;;;;;10075123;28;20132;-60
2023/07/09 13:35:31;;;;;;;5.68;5.05;;;;;;;;;;10074336;28;20421;-60
2023/07/09 13:40:23;;;;;;;7.18;5.35;;;;;;;;;;10079471;28;20044;-59
2023/07/09 13:45:25;;;;;;;5.88;4.82;;;;;;;;;;10080144;28;20046;-59
2023/07/09 13:50:18;;;;;;;6.20;4.57;;;;;;;;;;10080190;28;20040;-60
2023/07/09 13:55:20;;;;;;;6.53;5.10;;;;;;;;;;10075764;28;20148;-60
2023/07/09 14:00:13;;;;;;;8.35;5.78;;;;;;;;;;10077055;28;20049;-60
2023/07/09 14:05:07;;;;;;;6.47;5.10;;;;;;;;;;10050144;28;20550;-59
2023/07/09 14:10:00;;;;;;;5.90;4.75;;;;;;;;;;10083947;28;20050;-59
2023/07/09 14:14:53;;;;;;;5.80;5.22;;;;;;;;;;10070791;28;20115;-60
2023/07/09 14:19:45;;;;;;;5.22;4.72;;;;;;;;;;10061240;28;20331;-59
2023/07/09 14:24:37;;;;;;;5.88;5.28;;;;;;;;;;10068742;28;20044;-60
2023/07/09 14:29:29;;;;;;;8.60;6.00;;;;;;;;;;10073028;28;20125;-59
2023/07/09 14:34:27;;;;;;;6.40;5.10;;;;;;;;;;10071403;28;20096;-59
2023/07/09 14:39:19;;;;;;;6.22;5.25;;;;;;;;;;10080675;28;20041;-59
2023/07/09 14:44:31;;;;;;;5.25;4.70;;;;;;;;;;10064240;28;20063;-57
2023/07/09 14:49:24;;;;;;;6.15;4.38;;;;;;;;;;10067147;28;20037;-57
2023/07/09 14:54:27;;;;;;;7.18;4.40;;;;;;;;;;10076361;28;20037;-57
2023/07/09 14:59:20;;;;;;;7.05;5.15;;;;;;;;;;10088370;28;20106;-58
2023/07/09 15:04:20;;;;;;;7.65;5.45;;;;;;;;;;10087482;28;20538;-58
2023/07/09 15:09:12;;;;;;;6.18;5.35;;;;;;;;;;10066831;28;20462;-58
2023/07/09 15:14:12;;;;;;;6.65;4.97;;;;;;;;;;10060402;28;20077;-56
2023/07/09 15:19:12;;;;;;;6.13;4.80;;;;;;;;;;10068385;28;20052;-57
2023/07/09 15:24:04;;;;;;;9.05;5.00;;;;;;;;;;10090162;28;20045;-57
2023/07/09 15:28:56;;;;;;;5.28;4.70;;;;;;;;;;10079623;28;20042;-58
2023/07/09 15:33:47;;;;;;;9.80;4.80;;;;;;;;;;10060336;28;20561;-57
2023/07/09 15:38:41;;;;;;;5.10;4.60;;;;;;;;;;10068353;28;20041;-58
2023/07/09 15:43:33;;;;;;;6.65;5.57;;;;;;;;;;10051050;28;20053;-58
2023/07/09 15:48:30;;;;;;;5.13;4.63;;;;;;;;;;10065513;28;20377;-57
2023/07/09 15:53:22;;;;;;;6.20;4.82;;;;;;;;;;10084062;28;20435;-58
2023/07/09 15:58:26;;;;;;;5.90;5.00;;;;;;;;;;10080136;28;20427;-57
2023/07/09 16:03:18;;;;;;;5.40;4.80;;;;;;;;;;10081530;28;20110;-57
2023/07/09 16:08:14;;;;;;;6.20;5.10;;;;;;;;;;10073719;28;20103;-57
2023/07/09 16:13:19;;;;;;;5.35;4.85;;;;;;;;;;10072869;28;20050;-57
2023/07/09 16:18:11;;;;;;;5.85;4.40;;;;;;;;;;10073058;28;20041;-58
2023/07/09 16:23:03;;;;;;;6.20;4.72;;;;;;;;;;10078010;28;20053;-56
2023/07/09 16:27:55;;;;;;;5.82;5.20;;;;;;;;;;10082038;28;20038;-57
2023/07/09 16:32:47;;;;;;;5.18;4.68;;;;;;;;;;10075689;28;20526;-57
2023/07/09 16:37:41;;;;;;;5.20;4.57;;;;;;;;;;10071620;28;20056;-57
2023/07/09 16:42:33;;;;;;;6.60;5.15;;;;;;;;;;10072645;28;20490;-58
2023/07/09 16:47:25;;;;;;;4.75;4.35;;;;;;;;;;10077704;28;20207;-57
2023/07/09 16:52:24;;;;;;;5.53;4.47;;;;;;;;;;10065676;28;20044;-57
2023/07/09 16:57:23;;;;;;;7.10;5.18;;;;;;;;;;10069603;28;20151;-58
2023/07/09 17:02:27;;;;;;;5.70;5.03;;;;;;;;;;10075089;28;20494;-57
2023/07/09 17:07:19;;;;;;;4.95;4.53;;;;;;;;;;10077801;28;20116;-58
2023/07/09 17:12:12;;;;;;;6.28;5.68;;;;;;;;;;10081381;28;20091;-57
2023/07/09 17:17:04;;;;;;;5.93;5.25;;;;;;;;;;10064820;28;20057;-57
2023/07/09 17:21:58;;;;;;;7.22;5.90;;;;;;;;;;10066663;28;20045;-58
2023/07/09 17:26:52;;;;;;;6.28;5.60;;;;;;;;;;10071322;28;20045;-56
2023/07/09 17:31:47;;;;;;;11.00;5.45;;;;;;;;;;10067579;28;20046;-57
2023/07/09 17:36:40;;;;;;;7.32;5.70;;;;;;;;;;10058719;28;20379;-57
2023/07/09 17:41:32;;;;;;;5.60;5.10;;;;;;;;;;10061914;28;20060;-57
2023/07/09 17:46:24;;;;;;;7.78;5.35;;;;;;;;;;10063991;28;20136;-57
2023/07/09 17:51:16;;;;;;;11.15;5.40;;;;;;;;;;10039789;28;20046;-58
2023/07/09 17:56:19;;;;;;;8.13;6.38;;;;;;;;;;10030028;28;20073;-57
2023/07/09 18:01:11;;;;;;;5.40;4.78;;;;;;;;;;10060546;28;20167;-58
2023/07/09 18:06:03;;;;;;;5.97;5.30;;;;;;;;;;10056152;28;20042;-57
2023/07/09 18:10:57;;;;;;;5.38;4.88;;;;;;;;;;10061505;28;20045;-58
2023/07/09 18:15:51;;;;;;;6.70;5.43;;;;;;;;;;10070797;28;20426;-57
2023/07/09 18:20:43;;;;;;;9.93;5.60;;;;;;;;;;10072797;28;20494;-58
2023/07/09 18:25:38;;;;;;;6.10;5.60;;;;;;;;;;10037298;28;20132;-57
2023/07/09 18:30:32;;;;;;;11.02;5.68;;;;;;;;;;10063310;28;20045;-57
2023/07/09 18:35:29;;;;;;;6.93;5.78;;;;;;;;;;10065638;28;20490;-56
2023/07/09 18:40:21;;;;;;;6.13;5.53;;;;;;;;;;10041080;28;20046;-56
2023/07/09 18:45:18;;;;;;;6.40;5.80;;;;;;;;;;10055306;28;20042;-55
2023/07/09 18:50:21;;;;;;;9.63;5.75;;;;;;;;;;10054932;28;20080;-55
2023/07/09 18:55:36;;;;;;;7.50;6.10;;;;;;;;;;10048093;28;20120;-56
2023/07/09 19:00:28;;;;;;;9.32;6.60;;;;;;;;;;10060676;28;20050;-57
2023/07/09 19:05:24;;;;;;;8.88;6.47;;;;;;;;;;10048292;28;20096;-66
2023/07/09 19:10:20;;;;;;;8.63;6.75;;;;;;;;;;10067817;28;20534;-57
2023/07/09 19:15:12;;;;;;;8.98;6.15;;;;;;;;;;10059565;28;20076;-57
2023/07/09 19:20:21;;;;;;;12.50;7.22;;;;;;;;;;10047610;28;20415;-57
2023/07/09 19:25:17;;;;;;;8.90;5.97;;;;;;;;;;10062844;28;20041;-56
2023/07/09 19:30:10;;;;;;;8.85;6.75;;;;;;;;;;10055798;28;20045;-57
2023/07/09 19:35:03;;;;;;;8.27;5.93;;;;;;;;;;10045516;28;20045;-57
2023/07/09 19:39:55;;;;;;;7.18;6.30;;;;;;;;;;10049063;28;20044;-56
2023/07/09 19:44:48;;;;;;;6.97;6.28;;;;;;;;;;10042047;28;20045;-57
2023/07/09 19:49:40;;;;;;;12.65;7.50;;;;;;;;;;10046095;28;20041;-57
2023/07/09 19:54:31;;;;;;;11.50;7.25;;;;;;;;;;10047986;28;20048;-57
2023/07/09 19:59:23;;;;;;;7.00;6.30;;;;;;;;;;10075276;28;20048;-56
2023/07/09 20:04:15;;;;;;;6.88;6.07;;;;;;;;;;10064791;28;20044;-56
2023/07/09 20:09:14;;;;;;;8.35;6.72;;;;;;;;;;10081153;28;20046;-57
2023/07/09 20:14:13;;;;;;;8.30;6.53;;;;;;;;;;10073891;28;20033;-58
2023/07/09 20:19:11;;;;;;;12.15;6.18;;;;;;;;;;10080828;28;20053;-60
2023/07/09 20:24:16;;;;;;;8.57;6.27;;;;;;;;;;10080747;28;20045;-61
2023/07/09 20:29:12;;;;;;;6.13;5.53;;;;;;;;;;10082564;28;20532;-60
2023/07/09 20:34:21;;;;;;;6.65;5.85;;;;;;;;;;10077521;28;20057;-60
2023/07/09 20:39:16;;;;;;;8.95;7.35;;;;;;;;;;10081319;28;20045;-60
2023/07/09 20:44:14;;;;;;;9.68;6.28;;;;;;;;;;10079896;28;20080;-60
2023/07/09 20:49:33;;;;;;;8.88;6.38;;;;;;;;;;10079699;28;20435;-58
2023/07/09 20:54:27;;;;;;;7.15;6.10;;;;;;;;;;10080825;28;20445;-59
2023/07/09 20:59:18;;;;;;;6.15;5.55;;;;;;;;;;10082174;28;20091;-59
2023/07/09 21:04:12;;;;;;;11.70;7.70;;;;;;;;;;10075557;28;20045;-59
2023/07/09 21:09:29;;;;;;;7.03;5.85;;;;;;;;;;10069380;28;20124;-58
2023/07/09 21:14:21;;;;;;;7.43;6.50;;;;;;;;;;10075785;28;20045;-55
2023/07/09 21:19:28;;;;;;;7.20;5.85;;;;;;;;;;10070444;28;20386;-55
2023/07/09 21:24:25;;;;;;;9.73;6.40;;;;;;;;;;10065734;28;20123;-56
2023/07/09 21:29:19;;;;;;;7.45;6.03;;;;;;;;;;10071063;28;20132;-56
2023/07/09 21:34:31;;;;;;;6.43;5.78;;;;;;;;;;10071991;28;20045;-56
2023/07/09 21:39:24;;;;;;;8.63;6.80;;;;;;;;;;10072488;28;20045;-58
2023/07/09 21:44:16;;;;;;;6.60;5.95;;;;;;;;;;10085062;28;20454;-57
2023/07/09 21:49:13;;;;;;;6.97;5.80;;;;;;;;;;10086307;28;20045;-57
2023/07/09 21:54:29;;;;;;;8.25;6.40;;;;;;;;;;10082633;28;20081;-57
2023/07/09 21:59:40;;;;;;;6.55;5.70;;;;;;;;;;10087105;28;20063;-57
2023/07/09 22:04:36;;;;;;;6.47;5.75;;;;;;;;;;10084717;28;20045;-57
2023/07/09 22:09:28;;;;;;;10.80;6.57;;;;;;;;;;10083656;28;20053;-58
2023/07/09 22:14:22;;;;;;;7.45;5.32;;;;;;;;;;10086570;28;20045;-58
2023/07/09 22:19:15;;;;;;;11.05;6.57;;;;;;;;;;10077275;28;20122;-58
2023/07/09 22:24:12;;;;;;;6.90;5.93;;;;;;;;;;10081755;28;20056;-57
2023/07/09 22:29:04;;;;;;;6.15;5.40;;;;;;;;;;10078630;28;20043;-57
2023/07/09 22:33:57;;;;;;;9.32;5.63;;;;;;;;;;10078526;28;20037;-58
2023/07/09 22:38:49;;;;;;;7.30;6.13;;;;;;;;;;10084099;28;21900;-57
2023/07/09 22:43:41;;;;;;;8.43;5.63;;;;;;;;;;10084149;28;20084;-57
2023/07/09 22:48:32;;;;;;;13.07;5.50;;;;;;;;;;10084957;28;20049;-58
2023/07/09 22:53:25;;;;;;;6.13;5.53;;;;;;;;;;10085217;28;20089;-58
2023/07/09 22:58:19;;;;;;;7.75;5.45;;;;;;;;;;10085641;28;20041;-57
2023/07/09 23:03:13;;;;;;;6.13;5.30;;;;;;;;;;10088724;28;20049;-58
2023/07/09 23:08:22;;;;;;;6.85;4.78;;;;;;;;;;10087764;28;20056;-57
2023/07/09 23:13:14;;;;;;;8.27;6.15;;;;;;;;;;10086115;28;20471;-58
2023/07/09 23:18:13;;;;;;;7.25;5.28;;;;;;;;;;10085989;28;20041;-58
2023/07/09 23:23:05;;;;;;;5.60;5.10;;;;;;;;;;10085965;28;20052;-57
2023/07/09 23:27:57;;;;;;;6.93;5.60;;;;;;;;;;10088096;28;20124;-58
2023/07/09 23:32:49;;;;;;;5.68;5.07;;;;;;;;;;10087075;28;20052;-57
2023/07/09 23:37:42;;;;;;;5.80;5.20;;;;;;;;;;10088224;28;20057;-57
2023/07/09 23:42:34;;;;;;;5.95;4.65;;;;;;;;;;10086735;28;20478;-57
2023/07/09 23:47:25;;;;;;;8.73;6.38;;;;;;;;;;10085801;28;20069;-57
2023/07/09 23:52:17;;;;;;;6.38;5.25;;;;;;;;;;10086465;28;20045;-57
2023/07/09 23:57:09;;;;;;;8.77;5.60;;;;;;;;;;10031056;28;20148;-58
